createdAt,value
2022-09-20T00:02:24.249Z,4.40
2022-09-20T00:05:10.240Z,5.43
2022-09-20T00:08:00.280Z,4.07
2022-09-20T00:10:46.609Z,5.17
2022-09-20T00:13:33.783Z,4.67
2022-09-20T00:16:31.720Z,5.30
2022-09-20T00:19:22.337Z,7.27
2022-09-20T00:22:09.480Z,5.20
2022-09-20T00:24:55.359Z,3.63
2022-09-20T00:27:41.261Z,8.23
2022-09-20T00:30:27.453Z,4.30
2022-09-20T00:33:14.579Z,12.33
2022-09-20T00:36:00.737Z,6.97
2022-09-20T00:38:47.667Z,5.67
2022-09-20T00:41:33.855Z,4.20
2022-09-20T00:44:40.773Z,5.83
2022-09-20T00:47:26.651Z,4.77
2022-09-20T00:50:19.061Z,9.07
2022-09-20T00:53:15.343Z,4.57
2022-09-20T00:56:04.462Z,8.73
2022-09-20T00:59:17.743Z,4.87
2022-09-20T01:02:10.117Z,3.97
2022-09-20T01:04:59.992Z,4.70
2022-09-20T01:07:49.698Z,5.90
2022-09-20T01:10:36.024Z,8.43
2022-09-20T01:13:21.937Z,5.20
2022-09-20T01:16:08.772Z,5.90
2022-09-20T01:18:57.757Z,6.40
2022-09-20T01:21:46.713Z,4.87
2022-09-20T01:24:43.838Z,4.67
2022-09-20T01:27:44.826Z,5.40
2022-09-20T01:30:49.458Z,6.60
2022-09-20T01:33:35.468Z,5.93
2022-09-20T01:36:25.906Z,5.90
2022-09-20T01:39:32.715Z,6.40
2022-09-20T01:42:18.465Z,4.97
2022-09-20T01:45:17.171Z,6.47
2022-09-20T01:48:23.152Z,11.90
2022-09-20T01:51:29.422Z,6.33
2022-09-20T01:54:25.526Z,4.73
2022-09-20T01:57:41.036Z,7.30
2022-09-20T02:00:28.655Z,7.93
2022-09-20T02:03:33.877Z,8.63
2022-09-20T02:06:31.600Z,9.00
2022-09-20T02:09:46.889Z,6.43
2022-09-20T02:12:33.896Z,6.37
2022-09-20T02:15:39.045Z,7.63
2022-09-20T02:18:45.873Z,5.47
2022-09-20T02:21:35.096Z,6.70
2022-09-20T02:24:29.899Z,9.90
2022-09-20T02:27:24.831Z,8.07
2022-09-20T02:30:20.119Z,8.97
2022-09-20T02:33:16.087Z,6.83
2022-09-20T02:36:17.453Z,11.30
2022-09-20T02:39:22.677Z,5.67
2022-09-20T02:42:27.262Z,10.17
2022-09-20T02:45:21.270Z,4.90
2022-09-20T02:48:07.316Z,4.53
2022-09-20T02:51:12.026Z,6.80
2022-09-20T02:54:15.968Z,8.17
2022-09-20T02:57:26.495Z,4.30
2022-09-20T03:00:19.351Z,6.50
2022-09-20T03:03:14.491Z,9.13
2022-09-20T03:06:02.775Z,4.83
2022-09-20T03:08:56.742Z,8.73
2022-09-20T03:11:47.480Z,11.40
2022-09-20T03:14:38.077Z,11.93
2022-09-20T03:17:42.412Z,8.40
2022-09-20T03:20:35.092Z,12.40
2022-09-20T03:23:42.547Z,7.73
2022-09-20T03:26:43.731Z,8.40
2022-09-20T03:29:47.618Z,11.17
2022-09-20T03:32:40.679Z,10.80
2022-09-20T03:35:42.413Z,6.13
2022-09-20T03:38:41.327Z,6.90
2022-09-20T03:41:46.871Z,9.57
2022-09-20T03:44:44.481Z,5.37
2022-09-20T03:47:51.616Z,13.47
2022-09-20T03:50:37.174Z,8.93
2022-09-20T03:53:41.356Z,9.07
2022-09-20T03:56:46.418Z,8.20
2022-09-20T03:59:46.896Z,7.40
2022-09-20T04:02:35.586Z,9.80
2022-09-20T04:05:35.703Z,9.90
2022-09-20T04:08:30.799Z,7.73
2022-09-20T04:11:19.728Z,7.87
2022-09-20T04:14:24.164Z,8.37
2022-09-20T04:17:10.161Z,16.57
2022-09-20T04:20:02.542Z,9.53
2022-09-20T04:22:51.171Z,16.20
2022-09-20T04:25:43.597Z,7.23
2022-09-20T04:28:36.748Z,6.70
2022-09-20T04:31:28.218Z,7.17
2022-09-20T04:34:19.566Z,6.97
2022-09-20T04:37:22.898Z,10.63
2022-09-20T04:40:16.464Z,10.40
2022-09-20T04:43:32.851Z,9.40
2022-09-20T04:46:38.342Z,7.63
2022-09-20T04:49:33.614Z,8.63
2022-09-20T04:52:38.386Z,10.73
2022-09-20T04:55:39.308Z,9.33
2022-09-20T04:58:38.278Z,10.40
2022-09-20T05:01:33.698Z,12.07
2022-09-20T05:04:40.496Z,10.80
2022-09-20T05:07:51.305Z,8.10
2022-09-20T05:10:55.496Z,7.67
2022-09-20T05:13:44.462Z,12.37
2022-09-20T05:16:45.601Z,13.40
2022-09-20T05:19:43.031Z,9.33
2022-09-20T05:22:28.679Z,9.10
2022-09-20T05:25:33.599Z,12.73
2022-09-20T05:28:39.480Z,7.80
2022-09-20T05:31:38.850Z,15.60
2022-09-20T05:34:42.224Z,14.23
2022-09-20T05:37:46.607Z,14.70
2022-09-20T05:40:39.259Z,16.80
2022-09-20T05:43:35.557Z,11.10
2022-09-20T05:46:34.169Z,14.20
2022-09-20T05:49:20.225Z,13.40
2022-09-20T05:52:26.136Z,13.23
2022-09-20T05:55:11.848Z,12.57
2022-09-20T05:57:57.833Z,15.67
2022-09-20T06:00:47.502Z,16.70
2022-09-20T06:03:36.528Z,16.87
2022-09-20T06:06:30.349Z,10.73
2022-09-20T06:09:18.340Z,13.80
2022-09-20T06:12:20.846Z,12.27
2022-09-20T06:15:21.386Z,12.80
2022-09-20T06:18:25.984Z,14.80
2022-09-20T06:21:24.005Z,15.33
2022-09-20T06:24:29.219Z,11.03
2022-09-20T06:27:19.429Z,13.90
2022-09-20T06:30:08.519Z,15.40
2022-09-20T06:32:54.919Z,14.97
2022-09-20T06:35:46.261Z,12.10
2022-09-20T06:38:56.304Z,16.00
2022-09-20T06:41:42.791Z,14.47
2022-09-20T06:44:31.122Z,18.17
2022-09-20T06:47:19.789Z,13.93
2022-09-20T06:50:06.984Z,13.47
2022-09-20T06:52:53.534Z,15.97
2022-09-20T06:55:41.128Z,13.30
2022-09-20T06:58:31.171Z,20.17
2022-09-20T07:01:29.039Z,13.90
2022-09-20T07:04:15.895Z,16.70
2022-09-20T07:07:09.266Z,16.27
2022-09-20T07:09:55.205Z,13.57
2022-09-20T07:12:41.470Z,18.00
2022-09-20T07:15:28.114Z,13.73
2022-09-20T07:18:14.183Z,14.37
2022-09-20T07:21:02.959Z,12.13
2022-09-20T07:23:49.041Z,11.27
2022-09-20T07:26:35.014Z,14.10
2022-09-20T07:29:21.277Z,17.00
2022-09-20T07:32:06.935Z,10.93
2022-09-20T07:34:52.594Z,11.93
2022-09-20T07:37:41.128Z,13.87
2022-09-20T07:40:27.992Z,11.20
2022-09-20T07:43:13.789Z,15.50
2022-09-20T07:45:59.844Z,10.77
2022-09-20T07:48:45.325Z,13.17
2022-09-20T07:51:32.148Z,9.57
2022-09-20T07:54:17.941Z,9.57
2022-09-20T07:57:05.617Z,11.73
2022-09-20T07:59:52.720Z,8.30
2022-09-20T08:02:38.698Z,11.13
2022-09-20T08:05:24.563Z,10.33
2022-09-20T08:08:10.346Z,10.40
2022-09-20T08:11:02.673Z,12.10
2022-09-20T08:17:00.518Z,18.80
2022-09-20T08:19:46.625Z,15.27
2022-09-20T08:22:35.227Z,9.10
2022-09-20T08:25:20.935Z,11.50
2022-09-20T08:28:06.451Z,10.10
2022-09-20T08:30:52.258Z,8.97
2022-09-20T08:33:38.300Z,10.40
2022-09-20T08:36:25.647Z,6.60
2022-09-20T08:42:28.647Z,8.20
2022-09-20T08:45:33.861Z,6.90
2022-09-20T08:48:23.064Z,9.43
2022-09-20T08:51:22.352Z,5.40
2022-09-20T08:54:13.363Z,8.03
2022-09-20T08:57:05.027Z,8.50
2022-09-20T08:59:50.780Z,9.30
2022-09-20T09:02:36.368Z,11.10
2022-09-20T09:05:35.617Z,5.83
2022-09-20T09:08:23.258Z,7.10
2022-09-20T09:11:13.619Z,8.03
2022-09-20T09:14:31.446Z,10.97
2022-09-20T09:17:18.422Z,6.73
2022-09-20T09:20:22.423Z,5.83
2022-09-20T09:23:09.131Z,6.23
2022-09-20T09:25:55.452Z,8.40
2022-09-20T09:28:41.379Z,10.47
2022-09-20T09:31:27.275Z,5.70
2022-09-20T09:34:29.773Z,10.90
2022-09-20T09:37:30.450Z,6.03
2022-09-20T09:40:19.250Z,6.13
2022-09-20T09:43:07.957Z,4.17
2022-09-20T09:45:54.252Z,4.00
2022-09-20T09:48:40.465Z,9.70
2022-09-20T09:51:26.479Z,3.13
2022-09-20T09:54:17.691Z,4.37
2022-09-20T09:57:20.729Z,6.63
2022-09-20T10:00:19.756Z,3.57
2022-09-20T10:03:19.770Z,2.80
2022-09-20T10:06:23.416Z,3.97
2022-09-20T10:09:15.012Z,4.47
2022-09-20T10:12:00.866Z,4.07
2022-09-20T10:15:06.984Z,5.17
2022-09-20T10:18:17.143Z,3.13
2022-09-20T10:21:18.355Z,4.13
2022-09-20T10:24:33.385Z,4.30
2022-09-20T10:27:40.643Z,5.90
2022-09-20T10:30:37.452Z,5.00
2022-09-20T10:33:36.094Z,5.70
2022-09-20T10:36:24.697Z,3.60
2022-09-20T10:39:10.532Z,4.97
2022-09-20T10:42:21.272Z,3.60
2022-09-20T10:45:36.050Z,5.20
2022-09-20T10:48:28.019Z,6.83
2022-09-20T10:51:35.857Z,3.47
2022-09-20T10:54:54.237Z,4.70
2022-09-20T10:57:49.776Z,5.27
2022-09-20T11:00:54.267Z,3.90
2022-09-20T11:03:41.753Z,3.53
2022-09-20T11:06:29.649Z,4.43
2022-09-20T11:09:19.035Z,3.53
2022-09-20T11:12:10.993Z,3.80
2022-09-20T11:15:00.895Z,2.90
2022-09-20T11:18:02.009Z,6.47
2022-09-20T11:20:57.809Z,4.13
2022-09-20T11:24:06.728Z,3.73
2022-09-20T11:27:03.171Z,2.47
2022-09-20T11:30:03.404Z,4.50
2022-09-20T11:32:56.030Z,2.77
2022-09-20T11:35:58.611Z,3.10
2022-09-20T11:38:52.998Z,3.00
2022-09-20T11:41:40.615Z,3.20
2022-09-20T11:44:27.499Z,5.37
2022-09-20T11:47:36.708Z,3.87
2022-09-20T11:50:45.910Z,4.60
2022-09-20T11:53:40.699Z,6.07
2022-09-20T11:56:34.410Z,3.20
2022-09-20T11:59:40.733Z,3.10
2022-09-20T12:02:26.402Z,3.03
2022-09-20T12:05:24.532Z,4.97
2022-09-20T12:08:29.352Z,5.60
2022-09-20T12:11:17.635Z,6.80
2022-09-20T12:14:08.776Z,4.70
2022-09-20T12:16:56.337Z,3.07
2022-09-20T12:19:43.181Z,6.90
2022-09-20T12:22:29.476Z,6.33
2022-09-20T12:25:36.372Z,4.43
2022-09-20T12:28:32.993Z,4.20
2022-09-20T12:31:34.111Z,5.63
2022-09-20T12:34:19.729Z,2.63
2022-09-20T12:37:05.659Z,3.40
2022-09-20T12:39:56.805Z,4.43
2022-09-20T12:42:42.611Z,4.97
2022-09-20T12:45:30.377Z,3.73
2022-09-20T12:48:20.014Z,3.70
2022-09-20T12:51:34.332Z,6.30
2022-09-20T12:54:25.182Z,3.23
2022-09-20T12:57:18.718Z,3.00
2022-09-20T13:00:08.127Z,3.10
2022-09-20T13:02:55.473Z,3.47
2022-09-20T13:05:45.811Z,5.93
2022-09-20T13:08:32.856Z,4.27
2022-09-20T13:11:20.910Z,3.40
2022-09-20T13:14:09.991Z,3.00
2022-09-20T13:17:02.054Z,4.00
2022-09-20T13:19:49.946Z,6.37
2022-09-20T13:22:43.457Z,5.63
2022-09-20T13:25:29.196Z,6.37
2022-09-20T13:28:30.722Z,6.00
2022-09-20T13:31:22.442Z,3.83
2022-09-20T13:34:22.140Z,3.70
2022-09-20T13:37:16.425Z,3.23
2022-09-20T13:40:03.386Z,4.27
2022-09-20T13:42:52.431Z,6.63
2022-09-20T13:45:42.226Z,5.93
2022-09-20T13:48:29.170Z,4.83
2022-09-20T13:51:19.257Z,3.73
2022-09-20T13:54:25.608Z,3.10
2022-09-20T13:57:16.444Z,4.17
2022-09-20T14:00:02.483Z,3.97
2022-09-20T14:03:16.685Z,3.07
2022-09-20T14:06:05.837Z,3.93
2022-09-20T14:08:52.409Z,3.73
2022-09-20T14:11:39.114Z,31.47
2022-09-20T14:14:25.576Z,3.43
2022-09-20T14:17:16.437Z,3.33
2022-09-20T14:20:02.527Z,3.70
2022-09-20T14:22:48.728Z,4.33
2022-09-20T14:25:34.708Z,3.40
2022-09-20T14:28:28.038Z,4.83
2022-09-20T14:31:33.560Z,6.10
2022-09-20T14:34:19.817Z,4.17
2022-09-20T14:37:25.356Z,6.13
2022-09-20T14:40:20.910Z,6.57
2022-09-20T14:43:07.595Z,5.03
2022-09-20T14:45:55.800Z,3.90
2022-09-20T14:48:41.979Z,6.00
2022-09-20T14:51:28.333Z,3.93
2022-09-20T14:54:13.858Z,4.87
2022-09-20T14:57:03.023Z,4.50
2022-09-20T14:59:55.597Z,4.27
2022-09-20T15:02:43.222Z,3.80
2022-09-20T15:05:29.948Z,3.50
2022-09-20T15:08:17.250Z,2.73
2022-09-20T15:11:04.505Z,3.90
2022-09-20T15:13:51.753Z,4.87
2022-09-20T15:16:38.852Z,3.63
2022-09-20T15:19:26.911Z,3.23
2022-09-20T15:22:13.077Z,4.93
2022-09-20T15:24:58.629Z,3.10
2022-09-20T15:27:46.391Z,4.43
2022-09-20T15:30:31.841Z,4.00
2022-09-20T15:33:18.437Z,3.73
2022-09-20T15:36:04.267Z,4.33
2022-09-20T15:38:50.212Z,3.80
2022-09-20T15:41:36.433Z,3.00
2022-09-20T15:44:22.333Z,3.57
2022-09-20T15:47:08.912Z,3.30
2022-09-20T15:49:57.652Z,2.50
2022-09-20T15:52:43.567Z,3.00
2022-09-20T15:55:29.443Z,3.00
2022-09-20T15:58:17.127Z,4.30
2022-09-20T16:01:05.144Z,2.13
2022-09-20T16:03:53.150Z,3.00
2022-09-20T16:06:39.673Z,5.17
2022-09-20T16:09:25.341Z,3.97
2022-09-20T16:12:10.834Z,3.20
2022-09-20T16:14:56.605Z,3.37
2022-09-20T16:18:01.178Z,3.00
2022-09-20T16:20:46.972Z,2.90
2022-09-20T16:23:32.851Z,4.23
2022-09-20T16:26:19.807Z,5.87
2022-09-20T16:29:07.305Z,2.07
2022-09-20T16:31:54.289Z,2.70
2022-09-20T16:34:40.399Z,4.17
2022-09-20T16:37:32.678Z,5.07
2022-09-20T16:40:18.483Z,4.10
2022-09-20T16:43:08.698Z,3.27
2022-09-20T16:46:00.555Z,6.97
2022-09-20T16:48:47.682Z,3.10
2022-09-20T16:51:37.630Z,3.30
2022-09-20T16:54:27.331Z,2.60
2022-09-20T16:57:16.151Z,3.80
2022-09-20T17:00:03.951Z,2.67
2022-09-20T17:02:50.532Z,2.70
2022-09-20T17:05:37.031Z,3.20
2022-09-20T17:08:23.861Z,2.50
2022-09-20T17:11:12.320Z,4.37
2022-09-20T17:13:58.359Z,3.80
2022-09-20T17:16:48.093Z,5.07
2022-09-20T17:19:33.887Z,2.50
2022-09-20T17:22:19.803Z,3.40
2022-09-20T17:25:07.378Z,7.67
2022-09-20T17:27:53.299Z,2.90
2022-09-20T17:30:38.948Z,2.93
2022-09-20T17:33:27.187Z,3.43
2022-09-20T17:36:18.807Z,7.30
2022-09-20T17:39:04.932Z,3.90
2022-09-20T17:41:52.519Z,3.83
2022-09-20T17:44:40.491Z,3.47
2022-09-20T17:47:27.294Z,3.50
2022-09-20T17:50:14.709Z,4.07
2022-09-20T17:53:01.901Z,9.07
2022-09-20T17:55:53.705Z,3.37
2022-09-20T17:58:39.898Z,7.73
2022-09-20T18:01:27.768Z,3.80
2022-09-20T18:04:14.573Z,4.23
2022-09-20T18:07:01.639Z,3.83
2022-09-20T18:09:47.228Z,4.60
2022-09-20T18:12:33.179Z,4.23
2022-09-20T18:15:19.592Z,5.47
2022-09-20T18:18:05.960Z,4.03
2022-09-20T18:20:53.400Z,3.77
2022-09-20T18:23:39.428Z,3.10
2022-09-20T18:26:26.514Z,2.90
2022-09-20T18:29:13.908Z,5.30
2022-09-20T18:32:00.732Z,3.77
2022-09-20T18:34:51.017Z,3.53
2022-09-20T18:37:37.682Z,3.70
2022-09-20T18:40:23.822Z,5.20
2022-09-20T18:43:10.532Z,4.23
2022-09-20T18:45:57.548Z,5.80
2022-09-20T18:48:45.049Z,3.93
2022-09-20T18:51:34.737Z,5.47
2022-09-20T18:54:22.988Z,4.00
2022-09-20T18:57:10.437Z,5.13
2022-09-20T19:00:03.402Z,4.73
2022-09-20T19:02:58.339Z,3.90
2022-09-20T19:05:53.088Z,7.50
2022-09-20T19:08:42.920Z,4.77
2022-09-20T19:11:37.412Z,4.03
2022-09-20T19:14:28.504Z,4.90
2022-09-20T19:17:19.020Z,4.83
2022-09-20T19:20:09.006Z,3.83
2022-09-20T19:23:14.444Z,3.80
2022-09-20T19:26:21.377Z,4.13
2022-09-20T19:29:29.437Z,4.50
2022-09-20T19:32:18.604Z,4.53
2022-09-20T19:35:05.167Z,3.87
2022-09-20T19:38:15.467Z,6.93
2022-09-20T19:41:22.651Z,5.43
2022-09-20T19:44:36.796Z,3.90
2022-09-20T19:47:31.946Z,5.20
2022-09-20T19:50:33.707Z,5.57
2022-09-20T19:53:22.117Z,4.00
2022-09-20T19:56:16.893Z,4.37
2022-09-20T19:59:02.931Z,7.60
2022-09-20T20:01:48.686Z,3.37
2022-09-20T20:04:34.804Z,4.70
2022-09-20T20:07:24.757Z,4.63
2022-09-20T20:10:16.560Z,4.43
2022-09-20T20:13:25.264Z,3.63
2022-09-20T20:16:21.068Z,5.80
2022-09-20T20:19:19.548Z,4.73
2022-09-20T20:22:14.517Z,4.60
2022-09-20T20:25:00.276Z,4.73
2022-09-20T20:27:46.558Z,6.10
2022-09-20T20:30:32.449Z,4.53
2022-09-20T20:33:19.160Z,6.57
2022-09-20T20:36:08.837Z,4.57
2022-09-20T20:38:55.015Z,5.67
2022-09-20T20:41:42.105Z,5.90
2022-09-20T20:44:37.668Z,7.40
2022-09-20T20:47:23.218Z,6.60
2022-09-20T20:50:11.854Z,6.67
2022-09-20T20:52:57.790Z,9.10
2022-09-20T20:55:43.853Z,6.20
2022-09-20T20:58:32.382Z,9.23
2022-09-20T21:01:20.346Z,8.00
2022-09-20T21:04:07.803Z,6.97
2022-09-20T21:06:53.587Z,5.37
2022-09-20T21:09:39.684Z,6.40
2022-09-20T21:12:25.664Z,9.13
2022-09-20T21:15:14.717Z,8.30
2022-09-20T21:18:01.133Z,8.97
2022-09-20T21:20:46.820Z,7.00
2022-09-20T21:23:36.188Z,6.27
2022-09-20T21:26:24.172Z,6.20
2022-09-20T21:29:16.420Z,11.00
2022-09-20T21:32:02.426Z,9.17
2022-09-20T21:34:48.566Z,6.20
2022-09-20T21:37:34.902Z,7.90
2022-09-20T21:40:21.803Z,11.37
2022-09-20T21:43:07.951Z,8.37
2022-09-20T21:45:56.860Z,7.47
2022-09-20T21:48:43.019Z,6.43
2022-09-20T21:51:32.665Z,7.50
2022-09-20T21:54:18.359Z,6.20
2022-09-20T21:57:04.287Z,6.53
2022-09-20T21:59:50.068Z,10.40
2022-09-20T22:02:36.168Z,9.57
2022-09-20T22:05:22.240Z,10.60
2022-09-20T22:08:08.403Z,8.07
2022-09-20T22:10:58.386Z,7.80
2022-09-20T22:13:45.443Z,9.70
2022-09-20T22:16:32.608Z,5.97
2022-09-20T22:19:18.900Z,8.73
2022-09-20T22:22:05.746Z,5.23
2022-09-20T22:24:51.656Z,10.73
2022-09-20T22:27:37.675Z,7.17
2022-09-20T22:30:25.233Z,10.33
2022-09-20T22:33:11.222Z,8.03
2022-09-20T22:35:57.294Z,6.50
2022-09-20T22:38:44.040Z,7.03
2022-09-20T22:41:31.062Z,6.60
2022-09-20T22:44:17.126Z,8.07
2022-09-20T22:47:03.608Z,8.70
2022-09-20T22:49:49.865Z,9.73
2022-09-20T22:52:35.797Z,7.07
2022-09-20T22:55:23.622Z,6.33
2022-09-20T22:58:09.748Z,9.17
2022-09-20T23:00:58.395Z,7.30
2022-09-20T23:03:46.469Z,7.33
2022-09-20T23:06:34.285Z,8.63
2022-09-20T23:09:20.141Z,8.90
2022-09-20T23:12:05.963Z,9.07
2022-09-20T23:14:52.324Z,10.07
2022-09-20T23:17:41.855Z,7.77
2022-09-20T23:20:28.753Z,7.00
2022-09-20T23:23:23.606Z,7.00
2022-09-20T23:26:13.119Z,8.60
2022-09-20T23:29:00.310Z,6.33
2022-09-20T23:31:47.820Z,7.03
2022-09-20T23:34:33.831Z,7.90
2022-09-20T23:37:20.064Z,8.03
2022-09-20T23:40:06.240Z,7.23
2022-09-20T23:42:52.787Z,6.97
2022-09-20T23:45:41.057Z,9.57
2022-09-20T23:48:28.305Z,10.00
2022-09-20T23:51:16.837Z,12.50
2022-09-20T23:54:04.913Z,10.27
2022-09-20T23:56:51.132Z,14.23
2022-09-20T23:59:37.268Z,11.63
